Latest Weather Observations for Terrey Hills

IDN60901

Issued at 12:31 pm EST Tuesday 22 September 2020 (issued every 10 minutes, with the page automatically refreshed every 10 minutes)

About weather observations | Map of Sydney area stations | Latest observations for Sydney area | Other Formats
Station Details ID: 066059 Name: TERREY HILLS AWS Lat: -33.69 Lon: 151.23 Height: 199.0 m
Data from the previous 72 hours. | See also: Recent months at Terrey Hills
Date/Time
EST
Temp
°C
App
Temp
°C
Dew
Point
°C
Rel
Hum
%
Delta-T
°C
Wind Press
QNH
hPa
Press
MSL
hPa
Rain since
9am
mm
Dir  Spd
km/h
Gust
km/h
Spd
kts
Gust
kts
22/12:30pm 24.6 21.1 3.3 25 10.5 WNW 11 22 6 12 - - 0.0
22/12:00pm 24.1 21.1 5.9 31 9.4 WNW 11 22 6 12 - - 0.0
22/11:30am 23.4 19.9 5.3 31 9.2 W 13 30 7 16 - - 0.0
22/11:00am 23.1 19.2 5.5 32 8.9 WNW 15 30 8 16 - - 0.0
22/10:30am 22.2 19.0 6.8 37 8.0 W 13 22 7 12 - - 0.0
22/10:00am 21.5 16.8 5.0 34 8.2 W 19 35 10 19 - - 0.0
22/09:30am 21.3 17.6 7.9 42 7.0 W 17 30 9 16 - - 0.0
22/09:00am 20.8 18.6 10.9 53 5.5 WSW 13 28 7 15 - - 0.0
22/08:30am 20.0 17.6 9.9 52 5.5 WSW 13 28 7 15 - - 0.0
22/08:00am 19.6 17.5 9.8 53 5.3 SW 11 20 6 11 - - 0.0
22/07:30am 19.2 17.9 11.3 60 4.4 SW 9 17 5 9 - - 0.0
22/07:00am 18.9 18.5 14.0 73 2.8 SW 9 19 5 10 - - 0.0
22/06:30am 19.5 19.3 14.7 74 2.8 WNW 9 17 5 9 - - 0.0
22/06:00am 18.9 18.2 14.4 75 2.6 WNW 11 22 6 12 - - 0.0
22/05:30am 18.5 17.3 14.0 75 2.6 NW 13 24 7 13 - - 0.0
22/05:00am 18.5 17.2 13.6 73 2.8 NW 13 24 7 13 - - 0.0
22/04:30am 18.7 17.0 13.6 72 2.9 NW 15 26 8 14 - - 0.0
22/04:00am 18.4 17.3 13.1 71 3.0 NW 11 19 6 10 - - 0.0
22/03:30am 18.3 18.0 12.7 70 3.2 NW 6 13 3 7 - - 0.0
22/03:00am 19.1 17.8 12.6 66 3.7 NW 11 19 6 10 - - 0.0
22/02:30am 19.8 18.4 12.1 61 4.3 NNW 11 20 6 11 - - 0.0
22/02:00am 20.7 18.4 11.6 56 5.1 NNW 15 26 8 14 - - 0.0
22/01:30am 21.2 19.6 11.5 54 5.4 NW 11 19 6 10 - - 0.0
22/01:00am 21.4 19.8 11.4 53 5.6 NW 11 22 6 12 - - 0.0
22/12:30am 22.3 19.9 11.4 50 6.1 NW 15 26 8 14 - - 0.0
22/12:00am 23.3 19.7 10.7 45 7.0 NW 20 41 11 22 - - 0.0
 
Date/Time
EST
Temp
°C
App
Temp
°C
Dew
Point
°C
Rel
Hum
%
Delta-T
°C
Wind Press
QNH
hPa
Press
MSL
hPa
Rain since
9am
mm
Dir  Spd
km/h
Gust
km/h
Spd
kts
Gust
kts
21/11:30pm 22.7 20.0 12.9 54 5.7 NW 19 44 10 24 - - 0.0
21/11:00pm 22.1 21.6 15.9 68 3.8 NW 13 26 7 14 - - 0.0
21/10:30pm 22.1 22.0 16.1 69 3.7 NNW 11 20 6 11 - - 0.0
21/10:00pm 22.0 22.3 16.1 69 3.6 NW 9 13 5 7 - - 0.0
21/09:30pm 22.2 22.6 16.2 69 3.7 NW 9 19 5 10 - - 0.0
21/09:00pm 22.2 22.2 16.2 69 3.7 NNW 11 19 6 10 - - 0.0
21/08:30pm 22.5 22.5 16.3 68 3.8 NNW 11 19 6 10 - - 0.0
21/08:00pm 22.9 23.0 16.4 67 4.0 NNW 11 19 6 10 - - 0.0
21/07:30pm 23.1 23.2 16.4 66 4.1 NNW 11 20 6 11 - - 0.0
21/07:00pm 23.4 22.6 16.2 64 4.4 NNW 15 24 8 13 - - 0.0
21/06:30pm 23.8 24.2 16.3 63 4.6 NNW 9 19 5 10 - - 0.0
21/06:00pm 24.1 23.2 15.9 60 5.0 NNW 15 26 8 14 - - 0.0
21/05:30pm 24.7 23.7 15.6 57 5.5 NNW 15 32 8 17 - - 0.0
21/05:00pm 25.6 25.0 15.6 54 6.1 N 13 26 7 14 - - 0.0
21/04:30pm 24.6 26.0 17.3 64 4.6 N 6 15 3 8 - - 0.0
21/04:00pm 24.3 25.6 17.5 66 4.3 NNE 7 15 4 8 - - 0.0
21/03:30pm 24.0 24.8 17.3 66 4.2 NNE 9 15 5 8 - - 0.0
21/03:00pm 24.1 25.3 17.4 66 4.2 NNE 7 11 4 6 - - 0.0
21/02:30pm 26.0 27.1 17.1 58 5.6 N 7 15 4 8 - - 0.0
21/02:00pm 26.1 26.6 17.5 59 5.4 N 11 19 6 10 - - 0.0
21/01:30pm 26.2 26.8 17.6 59 5.4 N 11 22 6 12 - - 0.0
21/01:00pm 25.2 25.0 16.6 59 5.3 N 13 20 7 11 - - 0.0
21/12:30pm 25.8 25.4 16.1 55 6.0 N 13 28 7 15 - - 0.0
21/12:00pm 25.6 25.8 16.7 58 5.5 NNW 11 22 6 12 - - 0.0
21/11:30am 24.8 25.0 16.8 61 5.0 N 11 17 6 9 - - 0.0
21/11:00am 23.9 23.6 16.4 63 4.6 N 13 24 7 13 - - 0.0
21/10:30am 23.7 23.5 16.7 65 4.3 N 13 20 7 11 - - 0.0
21/10:00am - - - - - NNW 9 17 5 9 - - 0.0
21/09:30am - - - - - NNW 11 20 6 11 - - 0.0
21/09:00am - - - - - N 9 19 5 10 - - 10.0
21/08:30am - - - - - N 13 19 7 10 - - 10.0
21/08:00am - - - - - N 13 20 7 11 - - 10.0
21/07:30am - - - - - NNW 13 20 7 11 - - 10.0
21/07:00am - - - - - N 13 20 7 11 - - 10.0
21/06:30am - - - - - N 13 19 7 10 - - 10.0
21/06:00am - - - - - N 11 17 6 9 - - 10.0
21/05:30am - - - - - NNW 11 17 6 9 - - 10.0
21/05:00am - - - - - NNW 11 17 6 9 - - 10.0
21/04:30am - - - - - NNW 11 19 6 10 - - 10.0
21/04:00am - - - - - NNW 13 19 7 10 - - 10.0
21/03:30am - - - - - NNW 13 20 7 11 - - 10.0
21/03:00am - - - - - NNW 11 19 6 10 - - 10.0
21/02:30am - - - - - NNW 9 15 5 8 - - 10.0
21/02:00am - - - - - NNW 9 13 5 7 - - 10.0
21/01:30am - - - - - NNW 11 15 6 8 - - 10.0
21/01:00am - - - - - NNW 13 19 7 10 - - 10.0
21/12:30am - - - - - NNW 13 17 7 9 - - 10.0
21/12:00am - - - - - NNW 11 17 6 9 - - 10.0
 
Date/Time
EST
Temp
°C
App
Temp
°C
Dew
Point
°C
Rel
Hum
%
Delta-T
°C
Wind Press
QNH
hPa
Press
MSL
hPa
Rain since
9am
mm
Dir  Spd
km/h
Gust
km/h
Spd
kts
Gust
kts
20/11:30pm - - - - - NNW 13 19 7 10 - - 10.0
20/11:00pm - - - - - NNW 11 19 6 10 - - 10.0
20/10:30pm - - - - - NNW 13 19 7 10 - - 10.0
20/10:00pm - - - - - NW 9 13 5 7 - - 10.0
20/09:30pm - - - - - NNW 11 17 6 9 - - 10.0
20/09:00pm - - - - - NNW 11 17 6 9 - - 10.0
20/08:30pm - - - - - NNW 11 17 6 9 - - 10.0
20/08:00pm - - - - - NNW 11 17 6 9 - - 10.0
20/07:30pm - - - - - NNW 11 17 6 9 - - 10.0
20/07:00pm - - - - - N 7 11 4 6 - - 10.0
20/06:30pm - - - - - NNW 7 11 4 6 - - 10.0
20/06:00pm - - - - - N 7 13 4 7 - - 10.0
20/05:30pm - - - - - N 7 15 4 8 - - 10.0
20/05:00pm - - - - - NNE 7 13 4 7 - - 10.0
20/04:30pm - - - - - NE 11 20 6 11 - - 10.0
20/04:00pm - - - - - NNE 11 22 6 12 - - 10.0
20/03:30pm - - - - - NNE 11 20 6 11 - - 10.0
20/03:00pm - - - - - NE 11 20 6 11 - - 10.0
20/02:30pm - - - - - NE 13 26 7 14 - - 10.0
20/02:00pm - - - - - NNE 7 15 4 8 - - 10.0
20/01:30pm - - - - - N 7 13 4 7 - - 10.0
20/01:00pm - - - - - N 13 19 7 10 - - 10.0
20/12:30pm - - - - - NNE 7 19 4 10 - - 10.0
20/12:00pm - - - - - NNE 13 24 7 13 - - 10.0
20/11:30am - - - - - NNE 11 22 6 12 - - 10.0
20/11:00am - - - - - NNE 11 20 6 11 - - 9.8
20/10:30am - - - - - NE 11 20 6 11 - - 8.6
20/10:00am - - - - - NNE 11 20 6 11 - - 4.8
20/09:30am - - - - - N 7 13 4 7 - - 1.6
20/09:00am - - - - - NNE 9 17 5 9 - - 3.4
20/08:30am - - - - - NNE 11 17 6 9 - - 2.6
20/08:00am - - - - - NNE 7 19 4 10 - - 2.0
20/07:30am - - - - - NNE 9 17 5 9 - - 1.0
20/07:00am - - - - - N 11 22 6 12 - - 0.8
20/06:30am - - - - - NNE 13 20 7 11 - - 0.4
20/06:00am - - - - - N 13 24 7 13 - - 0.4
20/05:30am - - - - - N 9 13 5 7 - - 0.2
20/05:00am - - - - - N 7 15 4 8 - - 0.0
20/04:30am - - - - - N 11 19 6 10 - - 0.0
20/04:00am - - - - - NNE 13 22 7 12 - - 0.0
20/03:30am - - - - - NNE 7 15 4 8 - - 0.0
20/03:00am - - - - - NNE 7 13 4 7 - - 0.0
20/02:30am - - - - - NNE 11 17 6 9 - - 0.0
20/02:00am - - - - - NNE 9 17 5 9 - - 0.0
20/01:30am - - - - - N 7 13 4 7 - - 0.0
20/01:00am - - - - - N 9 17 5 9 - - 0.0
20/12:30am - - - - - NNE 11 17 6 9 - - 0.0
20/12:00am - - - - - NNE 11 20 6 11 - - 0.0
 
Date/Time
EST
Temp
°C
App
Temp
°C
Dew
Point
°C
Rel
Hum
%
Delta-T
°C
Wind Press
QNH
hPa
Press
MSL
hPa
Rain since
9am
mm
Dir  Spd
km/h
Gust
km/h
Spd
kts
Gust
kts
19/11:30pm - - - - - NNE 9 20 5 11 - - 0.0
19/11:00pm - - - - - NE 15 32 8 17 - - 0.0
19/10:30pm - - - - - NE 15 33 8 18 - - 0.0
19/10:00pm - - - - - NE 17 32 9 17 - - 0.0
19/09:30pm - - - - - NE 20 37 11 20 - - 0.0
19/09:00pm - - - - - NE 17 32 9 17 - - 0.0
19/08:30pm - - - - - ENE 17 33 9 18 - - 0.0
19/08:00pm - - - - - NE 7 15 4 8 - - 0.0
19/07:30pm - - - - - NE 11 28 6 15 - - 0.0
19/07:00pm - - - - - NE 11 32 6 17 - - 0.0
19/06:30pm - - - - - NE 13 20 7 11 - - 0.0
19/06:00pm - - - - - ENE 15 30 8 16 - - 0.0
19/05:30pm - - - - - NE 15 28 8 15 - - 0.0
19/05:00pm - - - - - NE 13 24 7 13 - - 0.0
19/04:30pm - - - - - NE 17 33 9 18 - - 0.0
19/04:00pm - - - - - ENE 17 30 9 16 - - 0.0
19/03:30pm - - - - - ENE 15 28 8 15 - - 0.0
19/03:00pm - - - - - ENE 19 28 10 15 - - 0.0
19/02:30pm - - - - - ENE 19 32 10 17 - - 0.0
19/02:00pm - - - - - ENE 19 32 10 17 - - 0.0
19/01:30pm - - - - - ENE 17 30 9 16 - - 0.0
19/01:00pm - - - - - ENE 13 22 7 12 - - 0.0

Latest Capital City Observations: Canberra | Sydney | Melbourne | Brisbane | Adelaide | Perth | Hobart | Darwin

Other formats

Comma delimited format used in spreadsheet applications
http://www.bom.gov.au/fwo/IDN60901/IDN60901.94759.axf

JavaScript Object Notation format (JSON) in row-major order
http://www.bom.gov.au/fwo/IDN60901/IDN60901.94759.json

Data quality

Most of these data are generated automatically and are frequently updated. Quality checks on data are not normally performed. It is possible for incorrect values to appear. Refer to information at About Latest Weather Observations and please check the disclaimer before using these data.